sensor_id;sensor_type;location;lat;lon;timestamp;temperature;humidity
13944;DHT22;7044;53.286;8.534;2023-01-01T00:01:24;13.80;99.90
13944;DHT22;7044;53.286;8.534;2023-01-01T00:03:52;13.80;99.90
13944;DHT22;7044;53.286;8.534;2023-01-01T00:06:19;13.80;99.90
13944;DHT22;7044;53.286;8.534;2023-01-01T00:08:48;13.80;99.90
13944;DHT22;7044;53.286;8.534;2023-01-01T00:11:36;13.90;99.90
13944;DHT22;7044;53.286;8.534;2023-01-01T00:14:03;13.80;99.90
13944;DHT22;7044;53.286;8.534;2023-01-01T00:16:30;13.90;99.90
13944;DHT22;7044;53.286;8.534;2023-01-01T00:18:58;13.90;99.90
13944;DHT22;7044;53.286;8.534;2023-01-01T00:21:25;13.80;99.90
13944;DHT22;7044;53.286;8.534;2023-01-01T00:23:53;13.80;99.90
13944;DHT22;7044;53.286;8.534;2023-01-01T00:26:20;13.80;99.90
13944;DHT22;7044;53.286;8.534;2023-01-01T00:28:46;13.80;99.90
13944;DHT22;7044;53.286;8.534;2023-01-01T00:31:16;13.90;99.90
13944;DHT22;7044;53.286;8.534;2023-01-01T00:33:43;13.90;99.90
13944;DHT22;7044;53.286;8.534;2023-01-01T00:36:12;13.90;99.90
13944;DHT22;7044;53.286;8.534;2023-01-01T00:38:40;13.90;99.90
13944;DHT22;7044;53.286;8.534;2023-01-01T00:41:10;13.90;99.90
13944;DHT22;7044;53.286;8.534;2023-01-01T00:43:37;13.90;99.90
13944;DHT22;7044;53.286;8.534;2023-01-01T00:46:05;13.90;99.90
13944;DHT22;7044;53.286;8.534;2023-01-01T00:48:32;13.90;99.90
13944;DHT22;7044;53.286;8.534;2023-01-01T00:50:59;13.90;99.90
13944;DHT22;7044;53.286;8.534;2023-01-01T00:53:26;13.90;99.90
13944;DHT22;7044;53.286;8.534;2023-01-01T00:55:53;13.90;99.90
13944;DHT22;7044;53.286;8.534;2023-01-01T00:58:23;13.90;99.90
13944;DHT22;7044;53.286;8.534;2023-01-01T01:00:51;13.80;99.90
13944;DHT22;7044;53.286;8.534;2023-01-01T01:03:18;13.80;99.90
13944;DHT22;7044;53.286;8.534;2023-01-01T01:05:53;13.80;99.90
13944;DHT22;7044;53.286;8.534;2023-01-01T01:08:20;13.80;99.90
13944;DHT22;7044;53.286;8.534;2023-01-01T01:10:47;13.80;99.90
13944;DHT22;7044;53.286;8.534;2023-01-01T01:13:14;13.80;99.90
13944;DHT22;7044;53.286;8.534;2023-01-01T01:15:42;13.80;99.90
13944;DHT22;7044;53.286;8.534;2023-01-01T01:18:09;13.80;99.90
13944;DHT22;7044;53.286;8.534;2023-01-01T01:20:35;13.80;99.90
13944;DHT22;7044;53.286;8.534;2023-01-01T01:23:03;13.80;99.90
13944;DHT22;7044;53.286;8.534;2023-01-01T01:25:30;13.90;99.90
13944;DHT22;7044;53.286;8.534;2023-01-01T01:27:57;13.90;99.90
13944;DHT22;7044;53.286;8.534;2023-01-01T01:30:23;13.90;99.90
13944;DHT22;7044;53.286;8.534;2023-01-01T01:32:51;13.90;99.90
13944;DHT22;7044;53.286;8.534;2023-01-01T01:35:18;13.80;99.90
13944;DHT22;7044;53.286;8.534;2023-01-01T01:37:45;13.90;99.90
13944;DHT22;7044;53.286;8.534;2023-01-01T01:40:13;13.90;99.90
13944;DHT22;7044;53.286;8.534;2023-01-01T01:42:44;13.90;99.90
13944;DHT22;7044;53.286;8.534;2023-01-01T01:45:12;13.80;99.90
13944;DHT22;7044;53.286;8.534;2023-01-01T01:47:44;13.90;99.90
13944;DHT22;7044;53.286;8.534;2023-01-01T01:50:17;13.80;99.90
13944;DHT22;7044;53.286;8.534;2023-01-01T01:52:55;13.80;99.90
13944;DHT22;7044;53.286;8.534;2023-01-01T01:55:24;13.80;99.90
13944;DHT22;7044;53.286;8.534;2023-01-01T01:57:52;13.80;99.90
13944;DHT22;7044;53.286;8.534;2023-01-01T02:00:19;13.90;99.90
13944;DHT22;7044;53.286;8.534;2023-01-01T02:02:50;13.90;99.90
13944;DHT22;7044;53.286;8.534;2023-01-01T02:05:21;13.90;99.90
13944;DHT22;7044;53.286;8.534;2023-01-01T02:07:48;13.90;99.90
13944;DHT22;7044;53.286;8.534;2023-01-01T02:10:17;13.90;99.90
13944;DHT22;7044;53.286;8.534;2023-01-01T02:12:43;13.90;99.90
13944;DHT22;7044;53.286;8.534;2023-01-01T02:15:10;13.90;99.90
13944;DHT22;7044;53.286;8.534;2023-01-01T02:17:43;13.90;99.90
13944;DHT22;7044;53.286;8.534;2023-01-01T02:20:26;13.90;99.90
13944;DHT22;7044;53.286;8.534;2023-01-01T02:26:01;13.90;99.90
13944;DHT22;7044;53.286;8.534;2023-01-01T02:28:43;13.90;99.90
13944;DHT22;7044;53.286;8.534;2023-01-01T02:31:17;13.80;99.90
13944;DHT22;7044;53.286;8.534;2023-01-01T02:33:45;13.80;99.90
13944;DHT22;7044;53.286;8.534;2023-01-01T02:36:13;13.80;99.90
13944;DHT22;7044;53.286;8.534;2023-01-01T02:38:42;13.70;99.90
13944;DHT22;7044;53.286;8.534;2023-01-01T02:41:13;13.70;99.90
13944;DHT22;7044;53.286;8.534;2023-01-01T02:43:44;13.70;99.90
13944;DHT22;7044;53.286;8.534;2023-01-01T02:46:12;13.70;99.90
13944;DHT22;7044;53.286;8.534;2023-01-01T02:48:41;13.70;99.90
13944;DHT22;7044;53.286;8.534;2023-01-01T02:51:16;13.70;99.90
13944;DHT22;7044;53.286;8.534;2023-01-01T02:53:57;13.60;99.90
13944;DHT22;7044;53.286;8.534;2023-01-01T02:56:34;13.50;99.90
13944;DHT22;7044;53.286;8.534;2023-01-01T02:59:12;13.50;99.90
13944;DHT22;7044;53.286;8.534;2023-01-01T03:02:03;13.50;99.90
13944;DHT22;7044;53.286;8.534;2023-01-01T03:04:41;13.50;99.90
13944;DHT22;7044;53.286;8.534;2023-01-01T03:07:16;13.40;99.90
13944;DHT22;7044;53.286;8.534;2023-01-01T03:09:53;13.40;99.90
13944;DHT22;7044;53.286;8.534;2023-01-01T03:12:29;13.40;99.90
13944;DHT22;7044;53.286;8.534;2023-01-01T03:15:11;13.40;99.90
13944;DHT22;7044;53.286;8.534;2023-01-01T03:17:45;13.40;99.90
13944;DHT22;7044;53.286;8.534;2023-01-01T03:20:16;13.40;99.90
13944;DHT22;7044;53.286;8.534;2023-01-01T03:22:44;13.30;99.90
13944;DHT22;7044;53.286;8.534;2023-01-01T03:25:16;13.30;99.90
13944;DHT22;7044;53.286;8.534;2023-01-01T03:27:48;13.40;99.90
13944;DHT22;7044;53.286;8.534;2023-01-01T03:30:18;13.30;99.90
13944;DHT22;7044;53.286;8.534;2023-01-01T03:32:51;13.30;99.90
13944;DHT22;7044;53.286;8.534;2023-01-01T03:35:36;13.30;99.90
13944;DHT22;7044;53.286;8.534;2023-01-01T03:38:07;13.30;99.90
13944;DHT22;7044;53.286;8.534;2023-01-01T03:40:37;13.30;99.90
13944;DHT22;7044;53.286;8.534;2023-01-01T03:43:07;13.30;99.90
13944;DHT22;7044;53.286;8.534;2023-01-01T03:45:39;13.30;99.90
13944;DHT22;7044;53.286;8.534;2023-01-01T03:48:07;13.30;99.90
13944;DHT22;7044;53.286;8.534;2023-01-01T03:50:43;13.40;99.90
13944;DHT22;7044;53.286;8.534;2023-01-01T03:53:18;13.40;99.90
13944;DHT22;7044;53.286;8.534;2023-01-01T03:55:51;13.40;99.90
13944;DHT22;7044;53.286;8.534;2023-01-01T03:58:25;13.40;99.90
13944;DHT22;7044;53.286;8.534;2023-01-01T04:01:01;13.40;99.90
13944;DHT22;7044;53.286;8.534;2023-01-01T04:03:30;13.40;99.90
13944;DHT22;7044;53.286;8.534;2023-01-01T04:06:01;13.40;99.90
13944;DHT22;7044;53.286;8.534;2023-01-01T04:08:28;13.40;99.90
13944;DHT22;7044;53.286;8.534;2023-01-01T04:10:56;13.30;99.90
13944;DHT22;7044;53.286;8.534;2023-01-01T04:13:24;13.30;99.90
13944;DHT22;7044;53.286;8.534;2023-01-01T04:15:51;13.30;99.90
13944;DHT22;7044;53.286;8.534;2023-01-01T04:18:19;13.30;99.90
13944;DHT22;7044;53.286;8.534;2023-01-01T04:20:46;13.30;99.90
13944;DHT22;7044;53.286;8.534;2023-01-01T04:23:13;13.30;99.90
13944;DHT22;7044;53.286;8.534;2023-01-01T04:25:39;13.40;99.90
13944;DHT22;7044;53.286;8.534;2023-01-01T04:28:06;13.40;99.90
13944;DHT22;7044;53.286;8.534;2023-01-01T04:30:33;13.40;99.90
13944;DHT22;7044;53.286;8.534;2023-01-01T04:33:00;13.40;99.90
13944;DHT22;7044;53.286;8.534;2023-01-01T04:35:28;13.40;99.90
13944;DHT22;7044;53.286;8.534;2023-01-01T04:37:55;13.50;99.90
13944;DHT22;7044;53.286;8.534;2023-01-01T04:40:23;13.50;99.90
13944;DHT22;7044;53.286;8.534;2023-01-01T04:42:52;13.50;99.90
13944;DHT22;7044;53.286;8.534;2023-01-01T04:45:19;13.40;99.90
13944;DHT22;7044;53.286;8.534;2023-01-01T04:47:46;13.50;99.90
13944;DHT22;7044;53.286;8.534;2023-01-01T04:50:13;13.40;99.90
13944;DHT22;7044;53.286;8.534;2023-01-01T04:52:41;13.50;99.90
13944;DHT22;7044;53.286;8.534;2023-01-01T04:55:08;13.50;99.90
13944;DHT22;7044;53.286;8.534;2023-01-01T04:57:35;13.50;99.90
13944;DHT22;7044;53.286;8.534;2023-01-01T05:00:02;13.50;99.90
13944;DHT22;7044;53.286;8.534;2023-01-01T05:02:29;13.50;99.90
13944;DHT22;7044;53.286;8.534;2023-01-01T05:04:56;13.50;99.90
13944;DHT22;7044;53.286;8.534;2023-01-01T05:07:22;13.50;99.90
13944;DHT22;7044;53.286;8.534;2023-01-01T05:09:50;13.50;99.90
13944;DHT22;7044;53.286;8.534;2023-01-01T05:12:17;13.50;99.90
13944;DHT22;7044;53.286;8.534;2023-01-01T05:14:44;13.60;99.90
13944;DHT22;7044;53.286;8.534;2023-01-01T05:17:11;13.70;99.90
13944;DHT22;7044;53.286;8.534;2023-01-01T05:19:37;13.60;99.90
13944;DHT22;7044;53.286;8.534;2023-01-01T05:22:05;13.60;99.90
13944;DHT22;7044;53.286;8.534;2023-01-01T05:24:32;13.60;99.90
13944;DHT22;7044;53.286;8.534;2023-01-01T05:27:02;13.60;99.90
13944;DHT22;7044;53.286;8.534;2023-01-01T05:29:29;13.60;99.90
13944;DHT22;7044;53.286;8.534;2023-01-01T05:31:55;13.60;99.90
13944;DHT22;7044;53.286;8.534;2023-01-01T05:34:22;13.60;99.90
13944;DHT22;7044;53.286;8.534;2023-01-01T05:36:49;13.60;99.90
13944;DHT22;7044;53.286;8.534;2023-01-01T05:39:16;13.70;99.90
13944;DHT22;7044;53.286;8.534;2023-01-01T05:41:43;13.70;99.90
13944;DHT22;7044;53.286;8.534;2023-01-01T05:44:11;13.70;99.90
13944;DHT22;7044;53.286;8.534;2023-01-01T05:46:40;13.70;99.90
13944;DHT22;7044;53.286;8.534;2023-01-01T05:49:09;13.70;99.90
13944;DHT22;7044;53.286;8.534;2023-01-01T05:51:36;13.70;99.90
13944;DHT22;7044;53.286;8.534;2023-01-01T05:54:03;13.70;99.90
13944;DHT22;7044;53.286;8.534;2023-01-01T05:56:30;13.70;99.90
13944;DHT22;7044;53.286;8.534;2023-01-01T05:58:57;13.70;99.90
13944;DHT22;7044;53.286;8.534;2023-01-01T06:01:26;13.70;99.90
13944;DHT22;7044;53.286;8.534;2023-01-01T06:03:54;13.60;99.90
13944;DHT22;7044;53.286;8.534;2023-01-01T06:06:23;13.60;99.90
13944;DHT22;7044;53.286;8.534;2023-01-01T06:08:51;13.70;99.90
13944;DHT22;7044;53.286;8.534;2023-01-01T06:11:18;13.60;99.90
13944;DHT22;7044;53.286;8.534;2023-01-01T06:13:45;13.60;99.90
13944;DHT22;7044;53.286;8.534;2023-01-01T06:16:12;13.50;99.90
13944;DHT22;7044;53.286;8.534;2023-01-01T06:18:40;13.40;99.90
13944;DHT22;7044;53.286;8.534;2023-01-01T06:21:08;13.40;99.90
13944;DHT22;7044;53.286;8.534;2023-01-01T06:23:36;13.40;99.90
13944;DHT22;7044;53.286;8.534;2023-01-01T06:26:05;13.30;99.90
13944;DHT22;7044;53.286;8.534;2023-01-01T06:28:31;13.30;99.90
13944;DHT22;7044;53.286;8.534;2023-01-01T06:30:59;13.40;99.90
13944;DHT22;7044;53.286;8.534;2023-01-01T06:33:26;13.40;99.90
13944;DHT22;7044;53.286;8.534;2023-01-01T06:35:55;13.30;99.90
13944;DHT22;7044;53.286;8.534;2023-01-01T06:38:22;13.30;99.90
13944;DHT22;7044;53.286;8.534;2023-01-01T06:40:55;13.30;99.90
13944;DHT22;7044;53.286;8.534;2023-01-01T06:43:22;13.30;99.90
13944;DHT22;7044;53.286;8.534;2023-01-01T06:45:58;13.30;99.90
13944;DHT22;7044;53.286;8.534;2023-01-01T06:48:27;13.40;99.90
13944;DHT22;7044;53.286;8.534;2023-01-01T06:50:55;13.40;99.90
13944;DHT22;7044;53.286;8.534;2023-01-01T06:53:25;13.40;99.90
13944;DHT22;7044;53.286;8.534;2023-01-01T06:55:52;13.40;99.90
13944;DHT22;7044;53.286;8.534;2023-01-01T06:58:19;13.40;99.90
13944;DHT22;7044;53.286;8.534;2023-01-01T07:00:46;13.40;99.90
13944;DHT22;7044;53.286;8.534;2023-01-01T07:03:12;13.40;99.90
13944;DHT22;7044;53.286;8.534;2023-01-01T07:05:39;13.40;99.90
13944;DHT22;7044;53.286;8.534;2023-01-01T07:08:07;13.40;99.90
13944;DHT22;7044;53.286;8.534;2023-01-01T07:10:34;13.50;99.90
13944;DHT22;7044;53.286;8.534;2023-01-01T07:13:01;13.40;99.90
13944;DHT22;7044;53.286;8.534;2023-01-01T07:15:28;13.40;99.90
13944;DHT22;7044;53.286;8.534;2023-01-01T07:17:56;13.40;99.90
13944;DHT22;7044;53.286;8.534;2023-01-01T07:20:22;13.30;99.90
13944;DHT22;7044;53.286;8.534;2023-01-01T07:22:49;13.40;99.90
13944;DHT22;7044;53.286;8.534;2023-01-01T07:25:17;13.30;99.90
13944;DHT22;7044;53.286;8.534;2023-01-01T07:27:44;13.30;99.90
13944;DHT22;7044;53.286;8.534;2023-01-01T07:30:11;13.30;99.90
13944;DHT22;7044;53.286;8.534;2023-01-01T07:32:38;13.20;99.90
13944;DHT22;7044;53.286;8.534;2023-01-01T07:35:05;13.30;99.90
13944;DHT22;7044;53.286;8.534;2023-01-01T07:37:32;13.30;99.90
13944;DHT22;7044;53.286;8.534;2023-01-01T07:39:59;13.20;99.90
13944;DHT22;7044;53.286;8.534;2023-01-01T07:42:27;13.20;99.90
13944;DHT22;7044;53.286;8.534;2023-01-01T07:44:54;13.20;99.90
13944;DHT22;7044;53.286;8.534;2023-01-01T07:47:22;13.20;99.90
13944;DHT22;7044;53.286;8.534;2023-01-01T07:49:50;13.20;99.90
13944;DHT22;7044;53.286;8.534;2023-01-01T07:52:17;13.20;99.90
13944;DHT22;7044;53.286;8.534;2023-01-01T07:54:44;13.20;99.90
13944;DHT22;7044;53.286;8.534;2023-01-01T07:57:11;13.10;99.90
13944;DHT22;7044;53.286;8.534;2023-01-01T07:59:39;13.20;99.90
13944;DHT22;7044;53.286;8.534;2023-01-01T08:02:06;13.10;99.90
13944;DHT22;7044;53.286;8.534;2023-01-01T08:04:32;13.10;99.90
13944;DHT22;7044;53.286;8.534;2023-01-01T08:06:59;13.10;99.90
13944;DHT22;7044;53.286;8.534;2023-01-01T08:09:26;13.10;99.90
13944;DHT22;7044;53.286;8.534;2023-01-01T08:11:53;13.10;99.90
13944;DHT22;7044;53.286;8.534;2023-01-01T08:14:19;13.00;99.90
13944;DHT22;7044;53.286;8.534;2023-01-01T08:16:47;13.10;99.90
13944;DHT22;7044;53.286;8.534;2023-01-01T08:19:14;13.10;99.90
13944;DHT22;7044;53.286;8.534;2023-01-01T08:21:41;13.10;99.90
13944;DHT22;7044;53.286;8.534;2023-01-01T08:24:08;13.10;99.90
13944;DHT22;7044;53.286;8.534;2023-01-01T08:26:35;13.00;99.90
13944;DHT22;7044;53.286;8.534;2023-01-01T08:29:05;13.10;99.90
13944;DHT22;7044;53.286;8.534;2023-01-01T08:31:32;13.00;99.90
13944;DHT22;7044;53.286;8.534;2023-01-01T08:34:00;13.00;99.90
13944;DHT22;7044;53.286;8.534;2023-01-01T08:36:27;13.00;99.90
13944;DHT22;7044;53.286;8.534;2023-01-01T08:38:54;13.00;99.90
13944;DHT22;7044;53.286;8.534;2023-01-01T08:41:21;13.10;99.90
13944;DHT22;7044;53.286;8.534;2023-01-01T08:43:48;13.10;99.90
13944;DHT22;7044;53.286;8.534;2023-01-01T08:46:15;13.00;99.90
13944;DHT22;7044;53.286;8.534;2023-01-01T08:48:42;13.00;99.90
13944;DHT22;7044;53.286;8.534;2023-01-01T08:51:10;13.00;99.90
13944;DHT22;7044;53.286;8.534;2023-01-01T08:53:37;13.00;99.90
13944;DHT22;7044;53.286;8.534;2023-01-01T08:56:05;13.00;99.90
13944;DHT22;7044;53.286;8.534;2023-01-01T08:58:34;13.10;99.90
13944;DHT22;7044;53.286;8.534;2023-01-01T09:01:01;13.00;99.90
13944;DHT22;7044;53.286;8.534;2023-01-01T09:03:28;13.00;99.90
13944;DHT22;7044;53.286;8.534;2023-01-01T09:05:55;13.00;99.90
13944;DHT22;7044;53.286;8.534;2023-01-01T09:08:23;13.00;99.90
13944;DHT22;7044;53.286;8.534;2023-01-01T09:10:50;13.00;99.90
13944;DHT22;7044;53.286;8.534;2023-01-01T09:13:19;12.90;99.90
13944;DHT22;7044;53.286;8.534;2023-01-01T09:15:46;12.90;99.90
13944;DHT22;7044;53.286;8.534;2023-01-01T09:18:13;13.00;99.90
13944;DHT22;7044;53.286;8.534;2023-01-01T09:20:40;12.90;99.90
13944;DHT22;7044;53.286;8.534;2023-01-01T09:23:07;12.90;99.90
13944;DHT22;7044;53.286;8.534;2023-01-01T09:25:36;12.90;99.90
13944;DHT22;7044;53.286;8.534;2023-01-01T09:28:05;13.00;99.90
13944;DHT22;7044;53.286;8.534;2023-01-01T09:30:32;13.00;99.90
13944;DHT22;7044;53.286;8.534;2023-01-01T09:33:00;12.90;99.90
13944;DHT22;7044;53.286;8.534;2023-01-01T09:35:27;12.90;99.90
13944;DHT22;7044;53.286;8.534;2023-01-01T09:37:54;12.90;99.90
13944;DHT22;7044;53.286;8.534;2023-01-01T09:40:27;12.90;99.90
13944;DHT22;7044;53.286;8.534;2023-01-01T09:43:05;12.90;99.90
13944;DHT22;7044;53.286;8.534;2023-01-01T09:45:36;12.90;99.90
13944;DHT22;7044;53.286;8.534;2023-01-01T09:48:09;13.00;99.90
13944;DHT22;7044;53.286;8.534;2023-01-01T09:50:39;13.00;99.90
13944;DHT22;7044;53.286;8.534;2023-01-01T09:53:12;12.90;99.90
13944;DHT22;7044;53.286;8.534;2023-01-01T09:55:45;13.00;99.90
13944;DHT22;7044;53.286;8.534;2023-01-01T09:58:14;12.90;99.90
13944;DHT22;7044;53.286;8.534;2023-01-01T10:00:43;12.90;99.90
13944;DHT22;7044;53.286;8.534;2023-01-01T10:03:24;12.90;99.90
13944;DHT22;7044;53.286;8.534;2023-01-01T10:05:59;12.90;99.90
13944;DHT22;7044;53.286;8.534;2023-01-01T10:08:37;12.90;99.90
13944;DHT22;7044;53.286;8.534;2023-01-01T10:11:12;13.00;99.90
13944;DHT22;7044;53.286;8.534;2023-01-01T10:13:43;12.90;99.90
13944;DHT22;7044;53.286;8.534;2023-01-01T10:16:14;13.00;99.90
13944;DHT22;7044;53.286;8.534;2023-01-01T10:18:46;13.00;99.90
13944;DHT22;7044;53.286;8.534;2023-01-01T10:21:18;13.00;99.90
13944;DHT22;7044;53.286;8.534;2023-01-01T10:23:51;13.10;99.90
13944;DHT22;7044;53.286;8.534;2023-01-01T10:26:23;13.10;99.90
13944;DHT22;7044;53.286;8.534;2023-01-01T10:28:57;13.00;99.90
13944;DHT22;7044;53.286;8.534;2023-01-01T10:31:30;13.10;99.90
13944;DHT22;7044;53.286;8.534;2023-01-01T10:33:58;13.00;99.90
13944;DHT22;7044;53.286;8.534;2023-01-01T10:36:26;13.10;99.90
13944;DHT22;7044;53.286;8.534;2023-01-01T10:38:53;13.00;99.90
13944;DHT22;7044;53.286;8.534;2023-01-01T10:41:20;13.00;99.90
13944;DHT22;7044;53.286;8.534;2023-01-01T10:43:48;13.10;99.90
13944;DHT22;7044;53.286;8.534;2023-01-01T10:46:20;13.00;99.90
13944;DHT22;7044;53.286;8.534;2023-01-01T10:49:05;13.00;99.90
13944;DHT22;7044;53.286;8.534;2023-01-01T10:51:32;13.00;99.90
13944;DHT22;7044;53.286;8.534;2023-01-01T10:54:02;13.00;99.90
13944;DHT22;7044;53.286;8.534;2023-01-01T10:56:38;13.00;99.90
13944;DHT22;7044;53.286;8.534;2023-01-01T10:59:37;12.90;99.90
13944;DHT22;7044;53.286;8.534;2023-01-01T11:02:17;12.90;99.90
13944;DHT22;7044;53.286;8.534;2023-01-01T11:04:44;12.90;99.90
13944;DHT22;7044;53.286;8.534;2023-01-01T11:07:19;12.90;99.90
13944;DHT22;7044;53.286;8.534;2023-01-01T11:09:49;12.80;99.90
13944;DHT22;7044;53.286;8.534;2023-01-01T11:12:19;12.80;99.90
13944;DHT22;7044;53.286;8.534;2023-01-01T11:14:50;12.80;99.90
13944;DHT22;7044;53.286;8.534;2023-01-01T11:17:21;12.80;99.90
13944;DHT22;7044;53.286;8.534;2023-01-01T11:19:49;12.80;99.90
13944;DHT22;7044;53.286;8.534;2023-01-01T11:22:38;12.80;99.90
13944;DHT22;7044;53.286;8.534;2023-01-01T11:25:18;12.80;99.90
13944;DHT22;7044;53.286;8.534;2023-01-01T11:27:45;12.80;99.90
13944;DHT22;7044;53.286;8.534;2023-01-01T11:30:25;12.70;99.90
13944;DHT22;7044;53.286;8.534;2023-01-01T11:32:56;12.80;99.90
13944;DHT22;7044;53.286;8.534;2023-01-01T11:35:25;12.80;99.90
13944;DHT22;7044;53.286;8.534;2023-01-01T11:37:53;12.80;99.90
13944;DHT22;7044;53.286;8.534;2023-01-01T11:40:24;12.70;99.90
13944;DHT22;7044;53.286;8.534;2023-01-01T11:42:57;12.70;99.90
13944;DHT22;7044;53.286;8.534;2023-01-01T11:45:30;12.80;99.90
13944;DHT22;7044;53.286;8.534;2023-01-01T11:48:00;12.70;99.90
13944;DHT22;7044;53.286;8.534;2023-01-01T11:50:29;12.80;99.90
13944;DHT22;7044;53.286;8.534;2023-01-01T11:53:17;12.80;99.90
13944;DHT22;7044;53.286;8.534;2023-01-01T11:55:46;12.90;99.90
13944;DHT22;7044;53.286;8.534;2023-01-01T11:58:16;12.90;99.90
13944;DHT22;7044;53.286;8.534;2023-01-01T12:00:47;12.90;99.90
13944;DHT22;7044;53.286;8.534;2023-01-01T12:03:21;12.90;99.90
13944;DHT22;7044;53.286;8.534;2023-01-01T12:05:50;12.90;99.90
13944;DHT22;7044;53.286;8.534;2023-01-01T12:08:30;12.90;99.90
13944;DHT22;7044;53.286;8.534;2023-01-01T12:11:03;12.90;99.90
13944;DHT22;7044;53.286;8.534;2023-01-01T12:13:36;12.90;99.90
13944;DHT22;7044;53.286;8.534;2023-01-01T12:16:12;12.90;99.90
13944;DHT22;7044;53.286;8.534;2023-01-01T12:18:44;12.80;99.90
13944;DHT22;7044;53.286;8.534;2023-01-01T12:21:17;12.90;99.90
13944;DHT22;7044;53.286;8.534;2023-01-01T12:23:45;12.90;99.90
13944;DHT22;7044;53.286;8.534;2023-01-01T12:26:18;12.80;99.90
13944;DHT22;7044;53.286;8.534;2023-01-01T12:31:49;12.80;99.90
13944;DHT22;7044;53.286;8.534;2023-01-01T12:34:24;12.80;99.90
13944;DHT22;7044;53.286;8.534;2023-01-01T12:36:59;12.80;99.90
13944;DHT22;7044;53.286;8.534;2023-01-01T12:39:56;12.70;99.90
13944;DHT22;7044;53.286;8.534;2023-01-01T12:42:37;12.70;99.90
13944;DHT22;7044;53.286;8.534;2023-01-01T12:48:28;12.60;99.90
13944;DHT22;7044;53.286;8.534;2023-01-01T12:51:02;12.60;99.90
13944;DHT22;7044;53.286;8.534;2023-01-01T12:53:38;12.70;99.90
13944;DHT22;7044;53.286;8.534;2023-01-01T12:56:15;12.70;99.90
13944;DHT22;7044;53.286;8.534;2023-01-01T12:58:49;12.70;99.90
13944;DHT22;7044;53.286;8.534;2023-01-01T13:01:19;12.60;99.90
13944;DHT22;7044;53.286;8.534;2023-01-01T13:03:52;12.60;99.90
13944;DHT22;7044;53.286;8.534;2023-01-01T13:06:24;12.50;99.90
13944;DHT22;7044;53.286;8.534;2023-01-01T13:08:55;12.50;99.90
13944;DHT22;7044;53.286;8.534;2023-01-01T13:11:25;12.50;99.90
13944;DHT22;7044;53.286;8.534;2023-01-01T13:13:54;13.50;99.90
13944;DHT22;7044;53.286;8.534;2023-01-01T13:16:42;12.40;99.90
13944;DHT22;7044;53.286;8.534;2023-01-01T13:19:25;12.40;99.90
13944;DHT22;7044;53.286;8.534;2023-01-01T13:21:56;12.40;99.90
13944;DHT22;7044;53.286;8.534;2023-01-01T13:24:24;12.30;99.90
13944;DHT22;7044;53.286;8.534;2023-01-01T13:26:52;12.30;99.90
13944;DHT22;7044;53.286;8.534;2023-01-01T13:29:34;12.20;99.90
13944;DHT22;7044;53.286;8.534;2023-01-01T13:32:08;12.10;99.90
13944;DHT22;7044;53.286;8.534;2023-01-01T13:35:01;12.00;99.90
13944;DHT22;7044;53.286;8.534;2023-01-01T13:37:42;12.10;99.90
13944;DHT22;7044;53.286;8.534;2023-01-01T13:43:26;12.10;99.90
13944;DHT22;7044;53.286;8.534;2023-01-01T13:45:53;12.00;99.90
13944;DHT22;7044;53.286;8.534;2023-01-01T13:48:34;12.10;99.90
13944;DHT22;7044;53.286;8.534;2023-01-01T13:51:20;12.00;99.90
13944;DHT22;7044;53.286;8.534;2023-01-01T13:54:06;12.00;99.90
13944;DHT22;7044;53.286;8.534;2023-01-01T13:56:42;12.00;99.90
13944;DHT22;7044;53.286;8.534;2023-01-01T13:59:30;12.00;99.90
13944;DHT22;7044;53.286;8.534;2023-01-01T14:02:22;11.90;99.90
13944;DHT22;7044;53.286;8.534;2023-01-01T14:04:51;11.90;99.90
13944;DHT22;7044;53.286;8.534;2023-01-01T14:07:38;11.90;99.90
13944;DHT22;7044;53.286;8.534;2023-01-01T14:10:21;11.90;99.90
13944;DHT22;7044;53.286;8.534;2023-01-01T14:12:50;11.80;99.90
13944;DHT22;7044;53.286;8.534;2023-01-01T14:15:24;11.80;99.90
13944;DHT22;7044;53.286;8.534;2023-01-01T14:17:52;11.80;99.90
13944;DHT22;7044;53.286;8.534;2023-01-01T14:20:30;11.80;99.90
13944;DHT22;7044;53.286;8.534;2023-01-01T14:23:03;11.80;99.90
13944;DHT22;7044;53.286;8.534;2023-01-01T14:25:30;11.70;99.90
13944;DHT22;7044;53.286;8.534;2023-01-01T14:27:58;11.70;99.90
13944;DHT22;7044;53.286;8.534;2023-01-01T14:30:25;11.70;99.90
13944;DHT22;7044;53.286;8.534;2023-01-01T14:32:56;11.70;99.90
13944;DHT22;7044;53.286;8.534;2023-01-01T14:35:23;11.70;99.90
13944;DHT22;7044;53.286;8.534;2023-01-01T14:37:50;11.70;99.90
13944;DHT22;7044;53.286;8.534;2023-01-01T14:40:21;11.70;99.90
13944;DHT22;7044;53.286;8.534;2023-01-01T14:43:00;11.60;99.90
13944;DHT22;7044;53.286;8.534;2023-01-01T14:45:28;11.60;99.90
13944;DHT22;7044;53.286;8.534;2023-01-01T14:47:56;11.60;99.90
13944;DHT22;7044;53.286;8.534;2023-01-01T14:50:25;11.60;99.90
13944;DHT22;7044;53.286;8.534;2023-01-01T14:52:56;11.60;99.90
13944;DHT22;7044;53.286;8.534;2023-01-01T14:55:30;11.50;99.90
13944;DHT22;7044;53.286;8.534;2023-01-01T14:57:58;11.50;99.90
13944;DHT22;7044;53.286;8.534;2023-01-01T15:00:27;11.50;99.90
13944;DHT22;7044;53.286;8.534;2023-01-01T15:03:03;11.50;99.90
13944;DHT22;7044;53.286;8.534;2023-01-01T15:05:33;11.40;99.90
13944;DHT22;7044;53.286;8.534;2023-01-01T15:08:02;11.40;99.90
13944;DHT22;7044;53.286;8.534;2023-01-01T15:10:33;11.40;99.90
13944;DHT22;7044;53.286;8.534;2023-01-01T15:13:04;11.30;99.90
13944;DHT22;7044;53.286;8.534;2023-01-01T15:15:40;11.40;99.90
13944;DHT22;7044;53.286;8.534;2023-01-01T15:21:10;11.40;99.90
13944;DHT22;7044;53.286;8.534;2023-01-01T15:23:37;11.40;99.90
13944;DHT22;7044;53.286;8.534;2023-01-01T15:26:24;11.40;99.90
13944;DHT22;7044;53.286;8.534;2023-01-01T15:28:52;11.40;99.90
13944;DHT22;7044;53.286;8.534;2023-01-01T15:31:19;11.30;99.90
13944;DHT22;7044;53.286;8.534;2023-01-01T15:33:47;11.30;99.90
13944;DHT22;7044;53.286;8.534;2023-01-01T15:36:14;11.40;99.90
13944;DHT22;7044;53.286;8.534;2023-01-01T15:38:45;11.30;99.90
13944;DHT22;7044;53.286;8.534;2023-01-01T15:41:32;11.30;99.90
13944;DHT22;7044;53.286;8.534;2023-01-01T15:44:12;11.20;99.90
13944;DHT22;7044;53.286;8.534;2023-01-01T15:46:44;11.30;99.90
13944;DHT22;7044;53.286;8.534;2023-01-01T15:49:22;11.30;99.90
13944;DHT22;7044;53.286;8.534;2023-01-01T15:51:50;11.20;99.90
13944;DHT22;7044;53.286;8.534;2023-01-01T15:54:17;11.20;99.90
13944;DHT22;7044;53.286;8.534;2023-01-01T15:56:46;11.20;99.90
13944;DHT22;7044;53.286;8.534;2023-01-01T15:59:34;11.20;99.90
13944;DHT22;7044;53.286;8.534;2023-01-01T16:02:04;11.20;99.90
13944;DHT22;7044;53.286;8.534;2023-01-01T16:04:33;11.20;99.90
13944;DHT22;7044;53.286;8.534;2023-01-01T16:07:00;11.30;99.90
13944;DHT22;7044;53.286;8.534;2023-01-01T16:09:27;11.30;99.90
13944;DHT22;7044;53.286;8.534;2023-01-01T16:11:56;11.20;99.90
13944;DHT22;7044;53.286;8.534;2023-01-01T16:14:24;11.30;99.90
13944;DHT22;7044;53.286;8.534;2023-01-01T16:16:53;11.20;99.90
13944;DHT22;7044;53.286;8.534;2023-01-01T16:19:22;11.30;99.90
13944;DHT22;7044;53.286;8.534;2023-01-01T16:21:49;11.30;99.90